Time;durP1;ratioP1;P1;durP2;ratioP2;P2;SDS_P1;SDS_P2;PMS_P1;PMS_P2;Temp;Humidity;BMP_temperature;BMP_pressure;BME280_temperature;BME280_humidity;BME280_pressure;Samples;Min_cycle;Max_cycle;Signal;HPM_P1;HPM_P2
2024/02/07 00:01:45;;;;;;;17.17;13.27;;;;;;;;;;9903757;28;20043;-84
2024/02/07 00:06:36;;;;;;;21.20;12.80;;;;;;;;;;9904850;28;20059;-84
2024/02/07 00:11:28;;;;;;;22.83;13.65;;;;;;;;;;9904047;28;20114;-84
2024/02/07 00:16:20;;;;;;;25.88;17.17;;;;;;;;;;9910327;28;20412;-84
2024/02/07 00:21:12;;;;;;;22.88;17.00;;;;;;;;;;9895532;28;20054;-85
2024/02/07 00:26:04;;;;;;;18.13;14.68;;;;;;;;;;9904672;28;20055;-85
2024/02/07 00:30:56;;;;;;;26.50;16.27;;;;;;;;;;9903998;28;20059;-84
2024/02/07 00:35:48;;;;;;;20.25;16.27;;;;;;;;;;9904471;28;20053;-84
2024/02/07 00:40:40;;;;;;;24.90;18.20;;;;;;;;;;9912169;28;20090;-84
2024/02/07 00:45:32;;;;;;;22.77;16.35;;;;;;;;;;9910937;28;20053;-84
2024/02/07 00:50:24;;;;;;;29.17;18.70;;;;;;;;;;9911832;28;20047;-85
2024/02/07 00:55:16;;;;;;;23.20;15.73;;;;;;;;;;9911203;28;20110;-85
2024/02/07 01:00:13;;;;;;;27.80;13.23;;;;;;;;;;9911208;28;20087;-85
2024/02/07 01:05:08;;;;;;;16.77;12.00;;;;;;;;;;9911219;28;20051;-84
2024/02/07 01:10:00;;;;;;;17.95;13.30;;;;;;;;;;9913518;28;20137;-84
2024/02/07 01:14:52;;;;;;;15.02;11.15;;;;;;;;;;9910364;28;20391;-84
2024/02/07 01:19:44;;;;;;;18.17;12.45;;;;;;;;;;9909436;28;20158;-84
2024/02/07 01:24:36;;;;;;;19.58;13.05;;;;;;;;;;9910029;28;20054;-84
2024/02/07 01:29:27;;;;;;;22.50;13.10;;;;;;;;;;9910631;28;20135;-84
2024/02/07 01:34:19;;;;;;;20.88;11.98;;;;;;;;;;9910250;28;20091;-84
2024/02/07 01:39:11;;;;;;;18.48;12.13;;;;;;;;;;9910052;28;20054;-83
2024/02/07 01:44:03;;;;;;;15.23;12.27;;;;;;;;;;9919749;28;20105;-84
2024/02/07 01:48:55;;;;;;;17.40;11.45;;;;;;;;;;9909817;28;20069;-84
2024/02/07 01:53:47;;;;;;;23.70;12.63;;;;;;;;;;9910121;28;20043;-84
2024/02/07 01:58:39;;;;;;;21.13;13.05;;;;;;;;;;9897748;28;20036;-84
2024/02/07 02:03:31;;;;;;;15.85;11.32;;;;;;;;;;9892236;28;20069;-85
2024/02/07 02:08:23;;;;;;;17.30;11.60;;;;;;;;;;9908659;28;20087;-84
2024/02/07 02:13:16;;;;;;;13.77;11.82;;;;;;;;;;9892378;28;20062;-84
2024/02/07 02:18:08;;;;;;;37.15;13.55;;;;;;;;;;9892625;28;20055;-84
2024/02/07 02:23:06;;;;;;;25.40;10.25;;;;;;;;;;9908300;28;20051;-84
2024/02/07 02:28:42;;;;;;;20.95;11.65;;;;;;;;;;9907898;28;20058;-83
2024/02/07 02:33:36;;;;;;;16.65;11.07;;;;;;;;;;9885882;28;20055;-83
2024/02/07 02:38:27;;;;;;;15.85;9.52;;;;;;;;;;9898510;28;20069;-84
2024/02/07 02:43:23;;;;;;;14.93;9.98;;;;;;;;;;9907920;28;20134;-85
2024/02/07 02:48:16;;;;;;;14.23;9.35;;;;;;;;;;9906725;28;20043;-84
2024/02/07 02:53:08;;;;;;;14.32;10.00;;;;;;;;;;9907888;28;20051;-84
2024/02/07 02:58:00;;;;;;;17.65;9.73;;;;;;;;;;9907300;28;20093;-84
2024/02/07 03:02:57;;;;;;;15.68;10.52;;;;;;;;;;9905980;28;20057;-84
2024/02/07 03:08:05;;;;;;;15.88;9.90;;;;;;;;;;9906657;28;20039;-84
2024/02/07 03:12:57;;;;;;;10.30;9.10;;;;;;;;;;9905505;28;20158;-84
2024/02/07 03:17:48;;;;;;;15.15;9.10;;;;;;;;;;9906141;28;20086;-84
2024/02/07 03:22:41;;;;;;;10.63;8.18;;;;;;;;;;9906810;28;20098;-84
2024/02/07 03:27:34;;;;;;;14.18;9.82;;;;;;;;;;9905250;28;20071;-84
2024/02/07 03:32:26;;;;;;;18.92;9.70;;;;;;;;;;9892087;28;20043;-84
2024/02/07 03:37:18;;;;;;;12.90;8.82;;;;;;;;;;9905618;28;20069;-84
2024/02/07 03:42:10;;;;;;;15.38;8.90;;;;;;;;;;9905721;28;20047;-83
2024/02/07 03:47:02;;;;;;;18.65;11.00;;;;;;;;;;9904476;28;20050;-83
2024/02/07 03:51:54;;;;;;;17.20;9.55;;;;;;;;;;9905690;28;20059;-83
2024/02/07 03:56:46;;;;;;;19.55;8.02;;;;;;;;;;9905237;28;20043;-84
2024/02/07 04:01:38;;;;;;;13.02;9.18;;;;;;;;;;9905964;28;20481;-84
2024/02/07 04:06:31;;;;;;;20.17;9.82;;;;;;;;;;9905175;28;20055;-83
2024/02/07 05:18:22;;;;;;;29.98;25.08;;;;;;;;;;9910856;28;20739;-83
2024/02/07 05:23:16;;;;;;;33.50;27.67;;;;;;;;;;9910252;28;20059;-83
2024/02/07 05:28:09;;;;;;;37.47;28.77;;;;;;;;;;9910548;28;20146;-83
2024/02/07 05:33:01;;;;;;;41.80;29.00;;;;;;;;;;9910933;28;20450;-83
2024/02/07 05:37:53;;;;;;;42.95;30.13;;;;;;;;;;9909792;28;20378;-83
2024/02/07 05:42:45;;;;;;;28.20;24.13;;;;;;;;;;9932899;28;20113;-83
2024/02/07 05:47:37;;;;;;;30.13;24.15;;;;;;;;;;9940642;28;20062;-83
2024/02/07 05:52:28;;;;;;;24.33;18.20;;;;;;;;;;9944056;28;20058;-83
2024/02/07 05:57:20;;;;;;;28.40;19.67;;;;;;;;;;9937755;28;20535;-83
2024/02/07 06:02:12;;;;;;;20.67;14.88;;;;;;;;;;9924675;28;20489;-80
2024/02/07 06:07:04;;;;;;;31.52;20.88;;;;;;;;;;9940763;28;20051;-80
2024/02/07 06:11:56;;;;;;;34.63;26.52;;;;;;;;;;9942170;28;20051;-79
2024/02/07 06:16:48;;;;;;;31.88;22.77;;;;;;;;;;9943128;28;20051;-79
2024/02/07 06:21:40;;;;;;;34.00;26.42;;;;;;;;;;9943462;28;20192;-79
2024/02/07 06:26:32;;;;;;;35.08;27.45;;;;;;;;;;9910018;28;20498;-79
2024/02/07 06:31:24;;;;;;;45.00;28.67;;;;;;;;;;9908668;28;20039;-79
2024/02/07 06:36:16;;;;;;;35.47;27.80;;;;;;;;;;9907575;28;20578;-79
2024/02/07 06:41:08;;;;;;;38.92;26.77;;;;;;;;;;9907460;28;20043;-79
2024/02/07 06:46:02;;;;;;;33.25;26.70;;;;;;;;;;9905548;28;20074;-79
2024/02/07 06:50:54;;;;;;;26.00;21.10;;;;;;;;;;9908367;28;20127;-79
2024/02/07 06:55:47;;;;;;;25.38;19.38;;;;;;;;;;9905172;28;20512;-79
2024/02/07 07:00:39;;;;;;;26.17;16.83;;;;;;;;;;9907608;28;20471;-79
2024/02/07 07:05:30;;;;;;;29.42;20.63;;;;;;;;;;9906980;28;20053;-79
2024/02/07 07:10:22;;;;;;;43.70;31.17;;;;;;;;;;9907078;28;20517;-79
2024/02/07 07:15:14;;;;;;;45.63;34.63;;;;;;;;;;9905335;28;20114;-79
2024/02/07 07:20:21;;;;;;;44.35;32.78;;;;;;;;;;9907276;28;20137;-79
2024/02/07 07:25:13;;;;;;;53.90;36.03;;;;;;;;;;9906452;28;20065;-79
2024/02/07 07:30:05;;;;;;;46.95;33.50;;;;;;;;;;9906283;28;20043;-79
2024/02/07 07:34:57;;;;;;;46.42;34.55;;;;;;;;;;9906397;28;20058;-79
2024/02/07 07:39:49;;;;;;;50.08;34.20;;;;;;;;;;9905888;28;20046;-79
2024/02/07 07:44:42;;;;;;;51.03;36.35;;;;;;;;;;9905288;28;20050;-78
2024/02/07 07:49:34;;;;;;;45.25;37.90;;;;;;;;;;9904500;28;20145;-79
2024/02/07 07:54:25;;;;;;;45.05;35.85;;;;;;;;;;9905520;28;20055;-79
2024/02/07 07:59:18;;;;;;;56.33;37.35;;;;;;;;;;9905271;28;20150;-79
2024/02/07 08:04:10;;;;;;;46.55;36.03;;;;;;;;;;9904658;28;20051;-79
2024/02/07 08:09:05;;;;;;;61.15;42.00;;;;;;;;;;9913735;28;20043;-77
2024/02/07 08:13:57;;;;;;;52.17;39.58;;;;;;;;;;9918186;28;20039;-77
2024/02/07 08:18:48;;;;;;;52.83;35.25;;;;;;;;;;9903352;28;20137;-77
2024/02/07 08:23:46;;;;;;;54.05;34.80;;;;;;;;;;9906107;28;20134;-77
2024/02/07 08:28:38;;;;;;;48.42;36.10;;;;;;;;;;9905202;28;20135;-77
2024/02/07 08:33:29;;;;;;;52.08;36.45;;;;;;;;;;9911672;28;20145;-77
2024/02/07 08:38:22;;;;;;;56.00;36.50;;;;;;;;;;9904822;28;20103;-77
2024/02/07 08:43:13;;;;;;;47.30;34.05;;;;;;;;;;9905213;28;20051;-77
2024/02/07 08:48:06;;;;;;;48.15;33.95;;;;;;;;;;9904078;28;20051;-77
2024/02/07 08:52:59;;;;;;;44.63;33.42;;;;;;;;;;9905162;28;20430;-77
2024/02/07 08:57:51;;;;;;;33.47;24.52;;;;;;;;;;9904431;28;20051;-79
2024/02/07 09:02:49;;;;;;;30.20;21.92;;;;;;;;;;9908546;28;20493;-79
2024/02/07 09:07:41;;;;;;;29.50;24.13;;;;;;;;;;9911758;28;20035;-77
2024/02/07 09:12:33;;;;;;;31.25;22.23;;;;;;;;;;9909857;28;20070;-78
2024/02/07 09:17:25;;;;;;;23.27;17.25;;;;;;;;;;9914925;28;20415;-77
2024/02/07 09:22:18;;;;;;;24.88;17.60;;;;;;;;;;9909769;28;20083;-77
2024/02/07 09:27:11;;;;;;;19.65;14.45;;;;;;;;;;9911645;28;20055;-77
2024/02/07 09:32:03;;;;;;;19.02;13.38;;;;;;;;;;9910864;28;20057;-77
2024/02/07 09:36:55;;;;;;;20.30;12.38;;;;;;;;;;9912101;28;20089;-77
2024/02/07 09:41:49;;;;;;;25.50;15.52;;;;;;;;;;9911097;28;20146;-78
2024/02/07 09:46:43;;;;;;;18.38;14.18;;;;;;;;;;9909562;28;20146;-78
2024/02/07 09:51:35;;;;;;;27.58;17.17;;;;;;;;;;9906447;28;20101;-77
2024/02/07 09:56:29;;;;;;;27.00;17.50;;;;;;;;;;9909504;28;20047;-78
2024/02/07 10:01:22;;;;;;;22.92;15.82;;;;;;;;;;9909000;28;20134;-77
2024/02/07 10:06:15;;;;;;;18.95;14.82;;;;;;;;;;9909105;28;20102;-77
2024/02/07 10:11:08;;;;;;;18.15;13.00;;;;;;;;;;9896241;28;20126;-78
2024/02/07 10:16:01;;;;;;;18.70;13.18;;;;;;;;;;9907249;28;20055;-78
2024/02/07 10:20:59;;;;;;;25.27;13.88;;;;;;;;;;9892142;28;20051;-77
2024/02/07 10:25:52;;;;;;;19.58;15.13;;;;;;;;;;9909393;28;20066;-77
2024/02/07 10:31:01;;;;;;;20.50;14.55;;;;;;;;;;9908460;28;20086;-77
2024/02/07 10:36:03;;;;;;;21.35;15.30;;;;;;;;;;9908028;28;20367;-77
2024/02/07 10:40:55;;;;;;;21.17;15.15;;;;;;;;;;9907600;28;20408;-77
2024/02/07 10:46:08;;;;;;;22.77;18.42;;;;;;;;;;9906171;28;20059;-78
2024/02/07 10:51:03;;;;;;;32.03;20.38;;;;;;;;;;9907558;28;20047;-78
2024/02/07 10:55:59;;;;;;;27.88;18.08;;;;;;;;;;9908586;28;20050;-77
2024/02/07 11:00:52;;;;;;;17.05;12.55;;;;;;;;;;9907495;28;20080;-77
2024/02/07 11:05:44;;;;;;;18.77;13.50;;;;;;;;;;9906823;28;20047;-77
2024/02/07 11:10:37;;;;;;;26.98;13.98;;;;;;;;;;9907383;28;20051;-77
2024/02/07 11:15:29;;;;;;;22.52;14.68;;;;;;;;;;9895478;28;20451;-79
2024/02/07 11:20:21;;;;;;;21.10;15.70;;;;;;;;;;9906442;28;20058;-79
2024/02/07 11:25:21;;;;;;;20.73;15.68;;;;;;;;;;9889020;28;20046;-79
2024/02/07 11:30:17;;;;;;;25.52;17.50;;;;;;;;;;9908731;28;20115;-79
2024/02/07 11:35:10;;;;;;;21.83;16.83;;;;;;;;;;9905685;28;20054;-79
2024/02/07 11:40:08;;;;;;;25.63;17.92;;;;;;;;;;9906105;28;20110;-79
2024/02/07 11:45:03;;;;;;;24.25;17.02;;;;;;;;;;9906496;28;20122;-78
2024/02/07 11:50:05;;;;;;;23.85;17.58;;;;;;;;;;9905487;28;20884;-78
2024/02/07 11:55:06;;;;;;;20.98;16.08;;;;;;;;;;9905424;28;20051;-78
2024/02/07 11:59:59;;;;;;;21.92;16.08;;;;;;;;;;9906476;28;20055;-78
2024/02/07 12:04:51;;;;;;;23.50;16.35;;;;;;;;;;9904869;28;20240;-78
2024/02/07 12:09:43;;;;;;;23.08;15.02;;;;;;;;;;9914317;28;20047;-78
2024/02/07 12:14:35;;;;;;;17.73;15.02;;;;;;;;;;9905701;28;20485;-78
2024/02/07 12:19:27;;;;;;;24.33;15.32;;;;;;;;;;9905051;28;20051;-79
2024/02/07 12:24:19;;;;;;;24.15;15.82;;;;;;;;;;9889805;28;20043;-79
2024/02/07 12:29:11;;;;;;;23.67;17.45;;;;;;;;;;9894405;28;20043;-79
2024/02/07 12:34:09;;;;;;;25.63;20.15;;;;;;;;;;9889331;28;20406;-79
2024/02/07 12:39:01;;;;;;;24.48;18.95;;;;;;;;;;9908960;28;20439;-79
2024/02/07 12:43:56;;;;;;;33.00;20.35;;;;;;;;;;9911226;28;20058;-79
2024/02/07 12:48:48;;;;;;;20.83;15.88;;;;;;;;;;9912340;28;20067;-79
2024/02/07 12:53:40;;;;;;;32.17;16.83;;;;;;;;;;9897739;28;20044;-80
2024/02/07 12:58:41;;;;;;;22.95;15.85;;;;;;;;;;9901026;28;20164;-79
2024/02/07 13:03:33;;;;;;;24.63;17.33;;;;;;;;;;9911195;28;20055;-79
2024/02/07 13:08:25;;;;;;;23.60;15.00;;;;;;;;;;9911591;28;20055;-79
2024/02/07 13:13:17;;;;;;;25.85;15.55;;;;;;;;;;9911347;28;20407;-79
2024/02/07 13:18:09;;;;;;;30.60;17.30;;;;;;;;;;9910641;28;20094;-80
2024/02/07 13:23:01;;;;;;;16.83;14.00;;;;;;;;;;9910717;28;20055;-80
2024/02/07 13:27:53;;;;;;;27.88;16.00;;;;;;;;;;9910594;28;20057;-80
2024/02/07 13:32:45;;;;;;;23.33;14.55;;;;;;;;;;9911325;28;20055;-79
2024/02/07 13:37:37;;;;;;;22.75;16.23;;;;;;;;;;9910556;28;20437;-80
2024/02/07 13:42:29;;;;;;;21.00;13.75;;;;;;;;;;9909319;28;20081;-80
2024/02/07 13:47:21;;;;;;;21.00;15.75;;;;;;;;;;9908764;28;20423;-80
2024/02/07 13:52:13;;;;;;;23.85;15.82;;;;;;;;;;9909639;28;20130;-79
2024/02/07 13:57:05;;;;;;;22.77;14.82;;;;;;;;;;9909584;28;20071;-80
2024/02/07 14:01:59;;;;;;;26.10;14.90;;;;;;;;;;9909304;28;20062;-79
2024/02/07 14:06:51;;;;;;;24.40;15.52;;;;;;;;;;9909562;28;20438;-79
2024/02/07 14:11:43;;;;;;;24.48;15.10;;;;;;;;;;9909075;28;20097;-79
2024/02/07 14:16:35;;;;;;;20.75;16.60;;;;;;;;;;9909088;28;20130;-80
2024/02/07 14:21:26;;;;;;;23.38;15.40;;;;;;;;;;9911836;28;20071;-79
2024/02/07 14:26:19;;;;;;;21.38;15.35;;;;;;;;;;9908022;28;20586;-80
2024/02/07 14:31:10;;;;;;;25.48;16.25;;;;;;;;;;9903135;28;20051;-80
2024/02/07 14:36:02;;;;;;;23.98;15.07;;;;;;;;;;9908721;28;20200;-78
2024/02/07 14:40:55;;;;;;;25.13;17.10;;;;;;;;;;9908118;28;20431;-78
2024/02/07 14:45:48;;;;;;;25.20;18.17;;;;;;;;;;9898060;28;20438;-79
2024/02/07 14:50:40;;;;;;;24.63;17.90;;;;;;;;;;9907028;28;20055;-79
2024/02/07 14:55:33;;;;;;;31.50;18.08;;;;;;;;;;9905167;28;20051;-79
2024/02/07 15:00:25;;;;;;;25.58;17.00;;;;;;;;;;9890558;28;20074;-78
2024/02/07 15:05:17;;;;;;;29.48;19.63;;;;;;;;;;9905747;28;20090;-78
2024/02/07 15:10:12;;;;;;;21.70;17.45;;;;;;;;;;9906466;28;20178;-79
2024/02/07 15:15:06;;;;;;;25.38;17.83;;;;;;;;;;9906703;28;20518;-78
2024/02/07 15:19:58;;;;;;;28.67;17.95;;;;;;;;;;9890342;28;20062;-79
2024/02/07 15:24:50;;;;;;;34.75;18.42;;;;;;;;;;9906759;28;20529;-79
2024/02/07 15:29:42;;;;;;;33.80;20.17;;;;;;;;;;9906014;28;20786;-78
2024/02/07 15:34:33;;;;;;;32.45;19.80;;;;;;;;;;9908644;28;20094;-79
2024/02/07 15:39:25;;;;;;;26.65;17.73;;;;;;;;;;9905984;28;20050;-76
2024/02/07 15:44:17;;;;;;;25.55;18.27;;;;;;;;;;9905981;28;20043;-78
2024/02/07 15:49:09;;;;;;;22.33;19.45;;;;;;;;;;9907565;28;20155;-78
2024/02/07 15:54:01;;;;;;;26.92;18.20;;;;;;;;;;9905620;28;20059;-78
2024/02/07 15:58:54;;;;;;;26.55;18.42;;;;;;;;;;9907375;28;20178;-78
2024/02/07 16:03:46;;;;;;;27.30;18.60;;;;;;;;;;9919950;28;20046;-78
2024/02/07 16:08:46;;;;;;;28.35;18.00;;;;;;;;;;9936525;28;20043;-78
2024/02/07 16:13:37;;;;;;;30.13;20.73;;;;;;;;;;9940818;28;20070;-78
2024/02/07 16:18:29;;;;;;;31.25;20.15;;;;;;;;;;9940824;28;20135;-78
2024/02/07 16:23:24;;;;;;;27.30;19.92;;;;;;;;;;9941539;28;20047;-78
2024/02/07 16:28:16;;;;;;;30.38;21.58;;;;;;;;;;9941779;28;20150;-79
2024/02/07 16:33:09;;;;;;;31.83;22.80;;;;;;;;;;9940384;28;20078;-78
2024/02/07 16:38:01;;;;;;;95.00;70.50;;;;;;;;;;9940302;28;20051;-78
2024/02/07 16:42:53;;;;;;;34.60;25.08;;;;;;;;;;9931257;28;20606;-78
2024/02/07 16:47:45;;;;;;;37.63;25.42;;;;;;;;;;9940952;28;20154;-76
2024/02/07 16:52:37;;;;;;;49.00;37.72;;;;;;;;;;9940611;28;20047;-77
2024/02/07 16:57:29;;;;;;;38.70;32.45;;;;;;;;;;9940654;28;20086;-77
2024/02/07 17:02:21;;;;;;;54.38;41.38;;;;;;;;;;9940433;28;20051;-76
2024/02/07 17:07:13;;;;;;;56.58;39.67;;;;;;;;;;9939651;28;20054;-77
2024/02/07 17:12:06;;;;;;;29.45;23.35;;;;;;;;;;9929916;28;20117;-76
2024/02/07 17:16:57;;;;;;;33.97;22.92;;;;;;;;;;9940135;28;20051;-77
2024/02/07 17:21:49;;;;;;;45.90;36.30;;;;;;;;;;9940081;28;20053;-75
2024/02/07 17:26:41;;;;;;;30.52;25.88;;;;;;;;;;9947464;28;20043;-75
2024/02/07 17:31:33;;;;;;;27.92;21.70;;;;;;;;;;9939703;28;20044;-75
2024/02/07 17:36:25;;;;;;;40.20;23.60;;;;;;;;;;9941877;28;20078;-76
2024/02/07 17:41:18;;;;;;;46.33;28.95;;;;;;;;;;9934021;28;20106;-75
2024/02/07 17:46:10;;;;;;;30.33;22.70;;;;;;;;;;9945360;28;20142;-73
2024/02/07 17:51:02;;;;;;;37.05;22.98;;;;;;;;;;9945712;28;20397;-73
2024/02/07 17:55:54;;;;;;;29.08;23.95;;;;;;;;;;9945939;28;20053;-74
2024/02/07 18:00:46;;;;;;;39.85;25.60;;;;;;;;;;9931011;28;20039;-74
2024/02/07 18:05:38;;;;;;;35.13;25.50;;;;;;;;;;9945318;28;20525;-74
2024/02/07 18:10:31;;;;;;;34.35;23.60;;;;;;;;;;9945818;28;20457;-74
2024/02/07 18:15:24;;;;;;;32.35;21.13;;;;;;;;;;9946180;28;20054;-74
2024/02/07 18:20:16;;;;;;;32.83;21.77;;;;;;;;;;9945373;28;20042;-74
2024/02/07 18:25:08;;;;;;;32.97;22.88;;;;;;;;;;9944604;28;20047;-74
2024/02/07 18:30:00;;;;;;;37.58;26.13;;;;;;;;;;9944929;28;20456;-74
2024/02/07 18:34:52;;;;;;;31.17;25.52;;;;;;;;;;9944779;28;20422;-74
2024/02/07 18:39:45;;;;;;;35.15;24.92;;;;;;;;;;9945360;28;20196;-74
2024/02/07 18:44:37;;;;;;;33.90;25.02;;;;;;;;;;9944075;28;20154;-74
2024/02/07 18:49:29;;;;;;;37.55;22.58;;;;;;;;;;9939747;28;20043;-74
2024/02/07 18:54:21;;;;;;;32.88;22.70;;;;;;;;;;9908383;28;20098;-74
2024/02/07 18:59:13;;;;;;;38.95;26.65;;;;;;;;;;9907809;28;20046;-74
2024/02/07 19:04:05;;;;;;;34.50;24.55;;;;;;;;;;9909623;28;20051;-73
2024/02/07 19:08:57;;;;;;;37.28;24.15;;;;;;;;;;9906981;28;20083;-73
2024/02/07 19:13:49;;;;;;;28.77;23.77;;;;;;;;;;9908368;28;20047;-74
2024/02/07 19:18:41;;;;;;;36.22;26.73;;;;;;;;;;9906196;28;20552;-73
2024/02/07 19:23:33;;;;;;;43.72;29.52;;;;;;;;;;9906744;28;20053;-74
2024/02/07 19:28:25;;;;;;;40.20;26.30;;;;;;;;;;9913245;28;20435;-74
2024/02/07 19:33:17;;;;;;;36.72;29.52;;;;;;;;;;9917798;28;20134;-73
2024/02/07 19:38:09;;;;;;;48.05;31.30;;;;;;;;;;9915889;28;20118;-73
2024/02/07 19:43:01;;;;;;;33.35;25.70;;;;;;;;;;9908187;28;20046;-74
2024/02/07 19:47:54;;;;;;;32.95;24.83;;;;;;;;;;9917714;28;20055;-74
2024/02/07 19:52:46;;;;;;;38.42;29.77;;;;;;;;;;9923227;28;20130;-74
2024/02/07 19:57:38;;;;;;;41.28;30.88;;;;;;;;;;9915899;28;20047;-74
2024/02/07 20:02:30;;;;;;;34.10;25.10;;;;;;;;;;9919939;28;20145;-74
2024/02/07 20:07:22;;;;;;;48.70;36.20;;;;;;;;;;9921895;28;20055;-73
2024/02/07 20:12:14;;;;;;;73.85;46.13;;;;;;;;;;9923008;28;20047;-74
2024/02/07 20:17:07;;;;;;;62.60;40.40;;;;;;;;;;9925073;28;20046;-74
2024/02/07 20:22:02;;;;;;;39.78;28.67;;;;;;;;;;9917639;28;20050;-73
2024/02/07 20:26:54;;;;;;;42.47;29.15;;;;;;;;;;9913467;28;20769;-73
2024/02/07 20:31:49;;;;;;;46.03;30.70;;;;;;;;;;9925880;28;20461;-74
2024/02/07 20:36:41;;;;;;;45.47;30.10;;;;;;;;;;9930153;28;20467;-74
2024/02/07 20:41:43;;;;;;;43.67;28.80;;;;;;;;;;9939690;28;20039;-74
2024/02/07 20:46:34;;;;;;;40.65;29.45;;;;;;;;;;9936312;28;20404;-74
2024/02/07 20:51:26;;;;;;;40.63;28.38;;;;;;;;;;9939071;28;20042;-74
2024/02/07 20:56:18;;;;;;;38.42;28.52;;;;;;;;;;9928780;28;20142;-74
2024/02/07 21:01:10;;;;;;;41.83;30.27;;;;;;;;;;9943339;28;20225;-74
2024/02/07 21:06:02;;;;;;;40.03;29.85;;;;;;;;;;9943424;28;20054;-74
2024/02/07 21:10:54;;;;;;;44.95;32.63;;;;;;;;;;9932781;28;20894;-74
2024/02/07 21:15:46;;;;;;;42.72;31.45;;;;;;;;;;9939502;28;20326;-74
2024/02/07 21:20:38;;;;;;;47.22;35.55;;;;;;;;;;9944370;28;20053;-74
2024/02/07 21:25:30;;;;;;;42.22;33.55;;;;;;;;;;9935742;28;20051;-74
2024/02/07 21:30:22;;;;;;;49.90;34.00;;;;;;;;;;9913155;28;20047;-75
2024/02/07 21:35:14;;;;;;;45.25;34.55;;;;;;;;;;9933341;28;20053;-74
2024/02/07 21:40:07;;;;;;;53.05;39.10;;;;;;;;;;9932081;28;20133;-74
2024/02/07 21:44:58;;;;;;;47.15;35.55;;;;;;;;;;9936270;28;20051;-74
2024/02/07 21:49:53;;;;;;;48.17;36.42;;;;;;;;;;9932756;28;20043;-74
2024/02/07 21:54:45;;;;;;;49.75;36.95;;;;;;;;;;9920594;28;20058;-74
2024/02/07 21:59:38;;;;;;;51.00;36.55;;;;;;;;;;9915891;28;20415;-74
2024/02/07 22:04:30;;;;;;;57.78;37.97;;;;;;;;;;9924934;28;20043;-74
2024/02/07 22:09:22;;;;;;;51.08;35.10;;;;;;;;;;9921208;28;20133;-74
2024/02/07 22:14:14;;;;;;;48.13;34.92;;;;;;;;;;9912976;28;20429;-74
2024/02/07 22:19:06;;;;;;;48.05;32.42;;;;;;;;;;9910093;28;20126;-73
2024/02/07 22:23:58;;;;;;;42.97;30.90;;;;;;;;;;9925834;28;20426;-74
2024/02/07 22:28:50;;;;;;;40.72;32.92;;;;;;;;;;9917622;28;20070;-74
2024/02/07 22:33:42;;;;;;;39.63;30.30;;;;;;;;;;9921339;28;20051;-74
2024/02/07 22:38:34;;;;;;;37.13;31.90;;;;;;;;;;9940161;28;20051;-73
2024/02/07 22:43:25;;;;;;;50.03;33.58;;;;;;;;;;9944440;28;20336;-74
2024/02/07 22:48:17;;;;;;;55.20;35.42;;;;;;;;;;9942657;28;20058;-74
2024/02/07 22:53:09;;;;;;;42.45;30.83;;;;;;;;;;9943500;28;20083;-74
2024/02/07 22:58:01;;;;;;;46.97;33.90;;;;;;;;;;9933278;28;20107;-74
2024/02/07 23:02:54;;;;;;;45.92;31.55;;;;;;;;;;9942994;28;20050;-74
2024/02/07 23:07:47;;;;;;;52.67;32.80;;;;;;;;;;9934756;28;20058;-74
2024/02/07 23:12:39;;;;;;;42.63;33.22;;;;;;;;;;9942665;28;20454;-74
2024/02/07 23:17:35;;;;;;;41.25;29.80;;;;;;;;;;9937746;28;20138;-74
2024/02/07 23:22:27;;;;;;;35.33;27.95;;;;;;;;;;9941760;28;20385;-74
2024/02/07 23:27:19;;;;;;;45.08;28.65;;;;;;;;;;9940791;28;20069;-74
2024/02/07 23:32:13;;;;;;;37.38;27.85;;;;;;;;;;9942104;28;20074;-74
2024/02/07 23:37:05;;;;;;;45.58;31.95;;;;;;;;;;9939889;28;20510;-74
2024/02/07 23:41:57;;;;;;;38.45;27.92;;;;;;;;;;9938943;28;20049;-74
2024/02/07 23:46:49;;;;;;;43.58;32.80;;;;;;;;;;9939246;28;20374;-74
2024/02/07 23:51:41;;;;;;;36.40;29.02;;;;;;;;;;9940279;28;20378;-74
2024/02/07 23:56:32;;;;;;;45.58;29.38;;;;;;;;;;9942625;28;20050;-74
